createdAt,value
2023-05-06T00:00:52.588Z,11.27
2023-05-06T00:03:21.157Z,9.77
2023-05-06T00:05:49.795Z,10.87
2023-05-06T00:08:18.649Z,11.97
2023-05-06T00:10:47.152Z,14.10
2023-05-06T00:13:16.201Z,12.87
2023-05-06T00:15:46.205Z,13.97
2023-05-06T00:18:15.363Z,13.77
2023-05-06T00:20:44.487Z,15.73
2023-05-06T00:23:12.907Z,16.57
2023-05-06T00:25:41.273Z,17.27
2023-05-06T00:28:09.589Z,13.43
2023-05-06T00:30:38.068Z,20.60
2023-05-06T00:33:08.136Z,17.77
2023-05-06T00:35:36.669Z,20.53
2023-05-06T00:38:09.840Z,16.13
2023-05-06T00:40:38.397Z,18.63
2023-05-06T00:43:07.148Z,20.90
2023-05-06T00:45:35.805Z,20.83
2023-05-06T00:48:05.871Z,18.43
2023-05-06T00:50:36.737Z,19.73
2023-05-06T00:53:06.985Z,19.70
2023-05-06T00:55:35.451Z,18.93
2023-05-06T00:58:04.434Z,18.57
2023-05-06T01:00:34.857Z,16.43
2023-05-06T01:03:03.570Z,14.33
2023-05-06T01:05:41.593Z,15.97
2023-05-06T01:08:18.869Z,19.90
2023-05-06T01:10:53.711Z,15.73
2023-05-06T01:13:30.080Z,16.83
2023-05-06T01:16:01.145Z,15.53
2023-05-06T01:18:33.404Z,17.47
2023-05-06T01:21:06.469Z,17.50
2023-05-06T01:23:55.329Z,19.20
2023-05-06T01:26:24.049Z,22.10
2023-05-06T01:28:52.479Z,17.20
2023-05-06T01:31:27.197Z,15.77
2023-05-06T01:34:06.700Z,16.77
2023-05-06T01:36:42.488Z,19.43
2023-05-06T01:39:18.194Z,23.40
2023-05-06T01:41:50.027Z,19.73
2023-05-06T01:44:21.601Z,19.00
2023-05-06T01:46:51.458Z,21.23
2023-05-06T01:49:23.362Z,14.77
2023-05-06T01:51:52.670Z,17.50
2023-05-06T01:54:22.600Z,20.03
2023-05-06T01:56:51.059Z,20.63
2023-05-06T01:59:19.540Z,17.17
2023-05-06T02:01:48.264Z,17.50
2023-05-06T02:04:16.685Z,19.73
2023-05-06T02:06:45.141Z,14.87
2023-05-06T02:09:16.499Z,18.93
2023-05-06T02:11:52.204Z,18.07
2023-05-06T02:14:20.656Z,19.57
2023-05-06T02:16:49.627Z,17.67
2023-05-06T02:19:18.078Z,16.83
2023-05-06T02:21:46.564Z,18.23
2023-05-06T02:24:15.020Z,16.47
2023-05-06T02:26:43.460Z,23.77
2023-05-06T02:29:13.224Z,18.23
2023-05-06T02:31:41.677Z,20.50
2023-05-06T02:34:10.337Z,20.27
2023-05-06T02:36:38.801Z,21.87
2023-05-06T02:39:07.297Z,23.77
2023-05-06T02:41:36.875Z,19.67
2023-05-06T02:44:06.299Z,12.47
2023-05-06T02:46:36.417Z,11.20
2023-05-06T02:49:05.052Z,11.23
2023-05-06T02:51:33.400Z,9.93
2023-05-06T02:54:01.848Z,11.00
2023-05-06T02:56:30.328Z,10.70
2023-05-06T02:58:58.692Z,5.73
2023-05-06T03:01:28.370Z,5.90
2023-05-06T03:03:58.349Z,4.73
2023-05-06T03:06:26.845Z,4.80
2023-05-06T03:08:55.184Z,3.87
2023-05-06T03:11:23.696Z,5.43
2023-05-06T03:13:52.292Z,5.40
2023-05-06T03:16:20.678Z,4.33
2023-05-06T03:18:52.297Z,3.70
2023-05-06T03:21:22.733Z,4.63
2023-05-06T03:23:53.053Z,4.57
2023-05-06T03:26:24.697Z,4.57
2023-05-06T03:28:53.626Z,3.50
2023-05-06T03:31:23.607Z,4.60
2023-05-06T03:33:52.543Z,4.60
2023-05-06T03:36:24.040Z,4.83
2023-05-06T03:38:54.659Z,3.30
2023-05-06T03:41:25.126Z,4.60
2023-05-06T03:43:56.207Z,3.67
2023-05-06T03:46:28.048Z,4.70
2023-05-06T03:48:56.771Z,3.03
2023-05-06T03:51:26.622Z,2.20
2023-05-06T03:53:56.877Z,2.80
2023-05-06T03:56:26.347Z,3.83
2023-05-06T03:58:58.153Z,3.53
2023-05-06T04:01:28.359Z,2.90
2023-05-06T04:03:57.019Z,3.30
2023-05-06T04:06:28.722Z,3.17
2023-05-06T04:08:57.292Z,3.43
2023-05-06T04:11:28.061Z,3.63
2023-05-06T04:13:59.363Z,2.83
2023-05-06T04:16:28.087Z,3.63
2023-05-06T04:18:57.684Z,2.93
2023-05-06T04:21:28.172Z,3.67
2023-05-06T04:24:02.634Z,2.77
2023-05-06T04:26:38.015Z,3.27
2023-05-06T04:29:07.137Z,3.00
2023-05-06T04:31:42.345Z,2.93
2023-05-06T04:34:13.625Z,3.23
2023-05-06T04:36:43.684Z,3.47
2023-05-06T04:39:37.184Z,4.97
2023-05-06T04:42:06.299Z,3.60
2023-05-06T04:44:42.491Z,3.73
2023-05-06T04:47:12.346Z,4.60
2023-05-06T04:49:43.767Z,3.67
2023-05-06T04:52:13.788Z,2.63
2023-05-06T04:54:44.844Z,4.80
2023-05-06T04:57:14.047Z,6.80
2023-05-06T04:59:45.160Z,4.20
2023-05-06T05:02:14.155Z,3.57
2023-05-06T05:04:44.421Z,5.43
2023-05-06T05:07:14.399Z,4.57
2023-05-06T05:09:43.201Z,6.57
2023-05-06T05:12:11.571Z,3.90
2023-05-06T05:14:44.474Z,3.00
2023-05-06T05:17:14.370Z,5.07
2023-05-06T05:19:43.550Z,3.67
2023-05-06T05:22:14.712Z,5.07
2023-05-06T05:24:43.269Z,4.03
2023-05-06T05:27:12.790Z,4.00
2023-05-06T05:29:42.064Z,4.43
2023-05-06T05:32:11.213Z,3.83
2023-05-06T05:34:40.534Z,3.93
2023-05-06T05:37:10.401Z,4.73
2023-05-06T05:39:40.468Z,4.27
2023-05-06T05:42:11.284Z,4.37
2023-05-06T05:44:42.085Z,5.00
2023-05-06T05:47:10.561Z,3.30
2023-05-06T05:49:39.282Z,5.77
2023-05-06T05:52:09.966Z,5.30
2023-05-06T05:54:40.265Z,4.77
2023-05-06T05:57:08.700Z,4.60
2023-05-06T05:59:38.190Z,4.30
2023-05-06T06:02:08.199Z,4.90
2023-05-06T06:04:36.759Z,3.97
2023-05-06T06:07:06.067Z,4.07
2023-05-06T06:09:39.859Z,3.10
2023-05-06T06:12:09.714Z,3.60
2023-05-06T06:14:41.318Z,4.50
2023-05-06T06:17:10.862Z,2.30
2023-05-06T06:19:39.645Z,3.17
2023-05-06T06:22:08.227Z,2.30
2023-05-06T06:24:37.154Z,2.83
2023-05-06T06:27:07.102Z,4.70
2023-05-06T06:29:35.673Z,2.03
2023-05-06T06:32:04.784Z,2.93
2023-05-06T06:34:33.463Z,2.40
2023-05-06T06:37:01.949Z,3.40
2023-05-06T06:39:30.447Z,2.40
2023-05-06T06:41:59.515Z,2.13
2023-05-06T06:44:31.456Z,2.80
2023-05-06T06:47:01.062Z,3.10
2023-05-06T06:49:29.472Z,3.75
2023-05-06T06:51:58.028Z,3.15
2023-05-06T06:54:26.387Z,3.50
2023-05-06T06:56:56.167Z,2.55
2023-05-06T06:59:24.611Z,3.10
2023-05-06T07:01:54.491Z,2.55
2023-05-06T07:04:22.866Z,2.25
2023-05-06T07:06:51.415Z,3.60
2023-05-06T07:09:19.845Z,4.72
2023-05-06T07:11:48.307Z,2.00
2023-05-06T07:14:16.717Z,2.65
2023-05-06T07:16:46.349Z,1.58
2023-05-06T07:19:17.020Z,1.48
2023-05-06T07:21:45.503Z,1.83
2023-05-06T07:24:13.845Z,1.40
2023-05-06T07:26:42.324Z,2.13
2023-05-06T07:29:10.948Z,3.30
2023-05-06T07:31:41.532Z,1.73
2023-05-06T07:34:09.997Z,1.15
2023-05-06T07:36:43.513Z,1.38
2023-05-06T07:39:12.663Z,1.33
2023-05-06T07:41:41.104Z,2.17
2023-05-06T07:44:09.526Z,1.58
2023-05-06T07:46:38.183Z,1.15
2023-05-06T07:49:06.865Z,0.80
2023-05-06T07:51:35.485Z,1.67
2023-05-06T07:54:06.208Z,1.30
2023-05-06T07:56:34.891Z,2.38
2023-05-06T07:59:03.621Z,1.08
2023-05-06T08:01:32.421Z,1.27
2023-05-06T08:04:01.133Z,2.17
2023-05-06T08:06:29.703Z,1.08
2023-05-06T08:08:58.166Z,0.85
2023-05-06T08:11:28.013Z,2.67
2023-05-06T08:13:57.508Z,1.02
2023-05-06T08:16:25.981Z,1.13
2023-05-06T08:18:54.529Z,0.80
2023-05-06T08:21:23.037Z,1.00
2023-05-06T08:23:51.561Z,1.20
2023-05-06T08:26:19.934Z,0.70
2023-05-06T08:28:49.738Z,3.00
2023-05-06T08:31:18.365Z,3.55
2023-05-06T08:33:46.807Z,1.00
2023-05-06T08:36:15.287Z,2.47
2023-05-06T08:38:49.106Z,1.42
2023-05-06T08:41:20.446Z,1.15
2023-05-06T08:43:51.566Z,1.42
2023-05-06T08:46:20.252Z,1.20
2023-05-06T08:48:48.834Z,1.05
2023-05-06T08:51:17.765Z,1.30
2023-05-06T08:53:49.773Z,1.33
2023-05-06T08:56:19.522Z,1.65
2023-05-06T08:58:49.973Z,1.33
2023-05-06T09:01:18.453Z,1.25
2023-05-06T09:03:48.545Z,1.25
2023-05-06T09:06:17.144Z,1.67
2023-05-06T09:08:45.538Z,4.55
2023-05-06T09:11:24.809Z,1.50
2023-05-06T09:14:09.894Z,1.60
2023-05-06T09:16:39.197Z,2.85
2023-05-06T09:19:07.772Z,2.38
2023-05-06T09:21:38.387Z,1.60
2023-05-06T09:24:09.036Z,2.47
2023-05-06T09:26:39.543Z,1.90
2023-05-06T09:29:09.519Z,2.05
2023-05-06T09:31:42.846Z,2.60
2023-05-06T09:34:12.249Z,1.85
2023-05-06T09:36:40.744Z,1.85
2023-05-06T09:39:10.270Z,1.33
2023-05-06T09:41:38.991Z,2.08
2023-05-06T09:44:08.890Z,2.20
2023-05-06T09:46:38.325Z,2.45
2023-05-06T09:49:07.548Z,2.00
2023-05-06T09:51:35.923Z,2.70
2023-05-06T09:54:05.404Z,1.10
2023-05-06T09:56:34.330Z,1.70
2023-05-06T09:59:04.462Z,1.33
2023-05-06T10:01:37.510Z,1.48
2023-05-06T10:04:10.316Z,1.00
2023-05-06T10:06:41.457Z,1.35
2023-05-06T10:09:10.677Z,1.88
2023-05-06T10:11:40.009Z,4.30
2023-05-06T10:14:09.363Z,2.28
2023-05-06T10:16:40.627Z,1.75
2023-05-06T10:19:09.811Z,1.70
2023-05-06T10:21:41.183Z,4.35
2023-05-06T10:24:14.475Z,2.70
2023-05-06T10:26:46.768Z,2.92
2023-05-06T10:29:15.283Z,2.10
2023-05-06T10:31:52.679Z,4.90
2023-05-06T10:34:22.537Z,3.28
2023-05-06T10:36:53.250Z,2.72
2023-05-06T10:39:22.367Z,3.42
2023-05-06T10:41:50.990Z,3.03
2023-05-06T10:44:19.424Z,2.30
2023-05-06T10:47:07.236Z,2.80
2023-05-06T10:49:35.779Z,2.60
2023-05-06T10:52:17.416Z,4.47
2023-05-06T10:54:50.833Z,1.52
2023-05-06T10:57:20.976Z,1.55
2023-05-06T10:59:50.275Z,1.75
2023-05-06T11:02:21.577Z,1.52
2023-05-06T11:04:54.025Z,1.88
2023-05-06T11:07:26.046Z,1.65
2023-05-06T11:09:59.502Z,3.45
2023-05-06T11:12:47.424Z,1.58
2023-05-06T11:15:40.587Z,1.55
2023-05-06T11:18:44.948Z,2.75
2023-05-06T11:21:41.685Z,2.05
2023-05-06T11:24:12.524Z,6.35
2023-05-06T11:26:44.559Z,1.70
2023-05-06T11:29:12.939Z,4.00
2023-05-06T11:31:43.258Z,1.80
2023-05-06T11:34:23.790Z,2.78
2023-05-06T11:37:02.484Z,1.55
2023-05-06T11:39:39.948Z,2.10
2023-05-06T11:42:09.941Z,2.38
2023-05-06T11:44:40.211Z,2.42
2023-05-06T11:47:10.208Z,2.83
2023-05-06T11:49:42.032Z,3.50
2023-05-06T11:52:11.521Z,3.65
2023-05-06T11:54:41.241Z,3.65
2023-05-06T11:57:10.722Z,4.20
2023-05-06T11:59:40.235Z,4.75
2023-05-06T12:02:10.128Z,4.45
2023-05-06T12:04:41.401Z,5.20
2023-05-06T12:07:11.105Z,2.67
2023-05-06T12:09:41.927Z,3.42
2023-05-06T12:12:11.624Z,2.65
2023-05-06T12:14:40.719Z,2.78
2023-05-06T12:17:09.488Z,2.58
2023-05-06T12:19:39.658Z,4.13
2023-05-06T12:22:19.433Z,4.07
2023-05-06T12:24:48.716Z,2.13
2023-05-06T12:27:30.610Z,2.63
2023-05-06T12:29:59.238Z,2.83
2023-05-06T12:32:28.095Z,2.95
2023-05-06T12:34:59.593Z,2.25
2023-05-06T12:37:29.927Z,1.70
2023-05-06T12:39:59.542Z,1.40
2023-05-06T12:42:28.635Z,2.00
2023-05-06T12:44:59.507Z,2.45
2023-05-06T12:47:28.029Z,1.90
2023-05-06T12:49:59.476Z,1.08
2023-05-06T12:52:30.221Z,1.90
2023-05-06T12:54:59.171Z,1.77
2023-05-06T12:57:27.850Z,1.35
2023-05-06T12:59:56.609Z,1.75
2023-05-06T13:02:25.242Z,2.40
2023-05-06T13:04:53.830Z,1.85
2023-05-06T13:07:23.640Z,1.30
2023-05-06T13:09:52.036Z,1.70
2023-05-06T13:12:20.419Z,2.35
2023-05-06T13:14:48.848Z,1.70
2023-05-06T13:17:17.493Z,1.70
2023-05-06T13:19:46.530Z,2.60
2023-05-06T13:22:14.916Z,2.53
2023-05-06T13:24:44.852Z,1.58
2023-05-06T13:27:13.272Z,1.88
2023-05-06T13:29:41.914Z,2.08
2023-05-06T13:32:11.648Z,2.55
2023-05-06T13:34:40.180Z,1.58
2023-05-06T13:37:08.818Z,2.33
2023-05-06T13:39:37.158Z,1.83
2023-05-06T13:42:08.397Z,1.20
2023-05-06T13:44:37.703Z,1.52
2023-05-06T13:47:07.664Z,1.30
2023-05-06T13:49:36.092Z,1.15
2023-05-06T13:52:08.035Z,1.63
2023-05-06T13:54:37.953Z,1.40
2023-05-06T13:57:07.638Z,1.20
2023-05-06T13:59:36.067Z,1.52
2023-05-06T14:02:08.138Z,2.45
2023-05-06T14:04:38.172Z,1.92
2023-05-06T14:07:06.559Z,3.30
2023-05-06T14:09:34.913Z,4.90
2023-05-06T14:12:03.241Z,8.70
2023-05-06T14:14:33.114Z,3.10
2023-05-06T14:17:02.394Z,1.10
2023-05-06T14:19:31.115Z,1.40
2023-05-06T14:21:59.530Z,0.70
2023-05-06T14:24:27.894Z,1.45
2023-05-06T14:26:56.353Z,1.25
2023-05-06T14:29:24.856Z,0.77
2023-05-06T14:31:54.839Z,0.95
2023-05-06T14:34:23.381Z,1.00
2023-05-06T14:36:51.914Z,0.50
2023-05-06T14:39:20.286Z,1.25
2023-05-06T14:41:48.839Z,2.22
2023-05-06T14:44:19.304Z,1.10
2023-05-06T14:46:47.729Z,0.93
2023-05-06T14:49:17.574Z,2.35
2023-05-06T14:51:47.887Z,1.35
2023-05-06T14:54:16.452Z,1.48
2023-05-06T14:56:46.897Z,1.38
2023-05-06T14:59:15.339Z,2.47
2023-05-06T15:01:43.900Z,1.90
2023-05-06T15:04:12.386Z,1.55
2023-05-06T15:06:42.168Z,1.58
2023-05-06T15:09:10.526Z,0.90
2023-05-06T15:11:38.860Z,1.17
2023-05-06T15:14:07.608Z,1.73
2023-05-06T15:16:36.102Z,1.48
2023-05-06T15:19:04.808Z,1.70
2023-05-06T15:21:33.414Z,0.95
2023-05-06T15:24:03.657Z,1.80
2023-05-06T15:26:32.194Z,2.75
2023-05-06T15:29:00.609Z,1.30
2023-05-06T15:31:29.361Z,1.02
2023-05-06T15:33:59.576Z,2.15
2023-05-06T15:36:28.987Z,1.70
2023-05-06T15:39:02.327Z,1.00
2023-05-06T15:41:33.902Z,2.33
2023-05-06T15:44:06.111Z,1.10
2023-05-06T15:46:35.282Z,1.23
2023-05-06T15:49:31.822Z,0.88
2023-05-06T15:51:53.350Z,2.55
2023-05-06T15:54:21.734Z,0.60
2023-05-06T15:56:51.582Z,1.15
2023-05-06T15:59:20.046Z,0.63
2023-05-06T16:04:20.329Z,2.25
2023-05-06T16:06:48.803Z,2.00
2023-05-06T16:09:18.370Z,1.20
2023-05-06T16:11:46.711Z,0.50
2023-05-06T16:14:17.725Z,1.10
2023-05-06T16:16:46.292Z,0.98
2023-05-06T16:19:14.793Z,2.42
2023-05-06T16:21:43.270Z,1.23
2023-05-06T16:24:11.662Z,1.35
2023-05-06T16:26:40.246Z,1.75
2023-05-06T16:29:08.683Z,3.22
2023-05-06T16:31:39.095Z,1.27
2023-05-06T16:34:07.499Z,2.17
2023-05-06T16:36:35.834Z,6.10
2023-05-06T16:39:06.566Z,1.88
2023-05-06T16:41:38.798Z,1.77
2023-05-06T16:44:07.415Z,2.78
2023-05-06T16:46:35.853Z,1.17
2023-05-06T16:49:06.031Z,2.75
2023-05-06T16:51:34.589Z,0.77
2023-05-06T16:54:03.792Z,1.98
2023-05-06T16:56:44.179Z,1.10
2023-05-06T16:59:21.984Z,1.67
2023-05-06T17:01:51.213Z,1.48
2023-05-06T17:04:21.070Z,2.05
2023-05-06T17:06:49.526Z,2.67
2023-05-06T17:09:18.227Z,1.98
2023-05-06T17:11:46.656Z,2.22
2023-05-06T17:14:15.072Z,1.05
2023-05-06T17:16:45.892Z,1.20
2023-05-06T17:19:14.825Z,3.83
2023-05-06T17:21:44.651Z,1.73
2023-05-06T17:24:13.116Z,1.15
2023-05-06T17:26:43.495Z,0.90
2023-05-06T17:29:11.962Z,1.53
2023-05-06T17:31:40.465Z,1.57
2023-05-06T17:34:09.064Z,1.27
2023-05-06T17:36:37.407Z,1.80
2023-05-06T17:39:07.807Z,2.70
2023-05-06T17:41:38.281Z,5.23
2023-05-06T17:44:07.654Z,2.27
2023-05-06T17:46:36.249Z,1.23
2023-05-06T17:49:06.154Z,3.37
2023-05-06T17:51:35.662Z,1.50
2023-05-06T17:54:04.411Z,2.10
2023-05-06T17:56:34.306Z,0.97
2023-05-06T17:59:02.777Z,3.97
2023-05-06T18:01:31.395Z,3.30
2023-05-06T18:04:00.434Z,1.30
2023-05-06T18:06:28.977Z,1.57
2023-05-06T18:08:57.501Z,24.63
2023-05-06T18:11:25.987Z,2.90
2023-05-06T18:13:55.869Z,5.30
2023-05-06T18:16:24.316Z,8.53
2023-05-06T18:18:52.810Z,2.20
2023-05-06T18:21:21.303Z,4.60
2023-05-06T18:23:53.505Z,2.77
2023-05-06T18:26:39.915Z,1.73
2023-05-06T18:29:13.472Z,2.30
2023-05-06T18:31:42.051Z,2.63
2023-05-06T18:34:10.677Z,1.53
2023-05-06T18:36:39.112Z,2.33
2023-05-06T18:39:07.709Z,1.93
2023-05-06T18:41:36.199Z,3.80
2023-05-06T18:44:05.492Z,1.00
2023-05-06T18:46:35.263Z,1.73
2023-05-06T18:49:03.866Z,1.23
2023-05-06T18:51:32.317Z,1.37
2023-05-06T18:54:01.056Z,1.10
2023-05-06T18:56:29.529Z,1.43
2023-05-06T18:58:57.963Z,3.87
2023-05-06T19:01:26.604Z,1.40
2023-05-06T19:03:57.029Z,1.43
2023-05-06T19:06:25.552Z,1.33
2023-05-06T19:08:54.382Z,2.10
2023-05-06T19:11:22.908Z,1.43
2023-05-06T19:13:52.159Z,1.43
2023-05-06T19:16:20.596Z,2.30
2023-05-06T19:18:49.055Z,1.80
2023-05-06T19:21:18.885Z,1.07
2023-05-06T19:23:47.175Z,1.73
2023-05-06T19:26:16.015Z,1.23
2023-05-06T19:28:44.341Z,1.87
2023-05-06T19:31:12.969Z,1.40
2023-05-06T19:33:41.597Z,1.40
2023-05-06T19:36:10.152Z,1.47
2023-05-06T19:38:39.897Z,2.83
2023-05-06T19:41:08.594Z,1.10
2023-05-06T19:43:42.289Z,1.30
2023-05-06T19:46:10.773Z,2.03
2023-05-06T19:48:39.736Z,2.30
2023-05-06T19:51:08.835Z,2.20
2023-05-06T19:53:37.809Z,1.17
2023-05-06T19:56:14.279Z,1.23
2023-05-06T19:58:42.682Z,1.50
2023-05-06T20:01:11.262Z,1.93
2023-05-06T20:03:40.317Z,1.30
2023-05-06T20:06:08.988Z,1.23
2023-05-06T20:08:37.321Z,1.47
2023-05-06T20:11:06.316Z,2.00
2023-05-06T20:13:38.133Z,3.83
2023-05-06T20:16:07.277Z,2.70
2023-05-06T20:18:35.687Z,3.27
2023-05-06T20:21:04.101Z,3.37
2023-05-06T20:23:32.463Z,1.47
2023-05-06T20:26:00.906Z,3.17
2023-05-06T20:28:29.231Z,1.70
2023-05-06T20:31:00.093Z,1.73
2023-05-06T20:33:28.539Z,2.30
2023-05-06T20:35:58.009Z,5.33
2023-05-06T20:38:27.390Z,2.73
2023-05-06T20:40:55.721Z,2.23
2023-05-06T20:43:25.265Z,2.03
2023-05-06T20:45:53.896Z,2.73
2023-05-06T20:48:23.707Z,1.10
2023-05-06T20:50:54.325Z,1.53
2023-05-06T20:53:23.026Z,2.20
2023-05-06T20:55:51.405Z,1.53
2023-05-06T20:58:19.940Z,1.17
2023-05-06T21:00:48.303Z,1.43
2023-05-06T21:03:16.977Z,1.33
2023-05-06T21:05:46.890Z,1.83
2023-05-06T21:08:16.306Z,1.60
2023-05-06T21:10:45.396Z,2.07
2023-05-06T21:13:14.126Z,1.83
2023-05-06T21:15:42.476Z,1.10
2023-05-06T21:18:11.095Z,2.37
2023-05-06T21:20:39.497Z,1.73
2023-05-06T21:23:09.583Z,1.37
2023-05-06T21:25:38.033Z,1.40
2023-05-06T21:28:07.545Z,3.60
2023-05-06T21:30:36.975Z,1.40
2023-05-06T21:33:06.721Z,1.70
2023-05-06T21:35:35.464Z,2.60
2023-05-06T21:38:03.902Z,1.70
2023-05-06T21:40:34.701Z,3.90
2023-05-06T21:43:03.613Z,1.27
2023-05-06T21:45:31.973Z,2.43
2023-05-06T21:48:03.854Z,2.67
2023-05-06T21:50:32.364Z,2.80
2023-05-06T21:53:00.667Z,2.17
2023-05-06T21:55:29.123Z,2.73
2023-05-06T21:57:58.938Z,1.70
2023-05-06T22:00:28.243Z,1.80
2023-05-06T22:02:56.787Z,1.67
2023-05-06T22:05:25.295Z,1.60
2023-05-06T22:07:53.704Z,2.83
2023-05-06T22:10:22.166Z,2.23
2023-05-06T22:12:50.915Z,2.67
2023-05-06T22:15:20.946Z,2.40
2023-05-06T22:17:50.378Z,2.27
2023-05-06T22:20:18.921Z,1.87
2023-05-06T22:22:47.269Z,2.33
2023-05-06T22:25:17.738Z,5.83
2023-05-06T22:27:46.237Z,2.90
2023-05-06T22:30:16.416Z,3.33
2023-05-06T22:32:46.723Z,2.60
2023-05-06T22:35:17.452Z,2.00
2023-05-06T22:37:46.391Z,2.10
2023-05-06T22:40:14.926Z,2.20
2023-05-06T22:42:43.334Z,1.67
2023-05-06T22:45:12.130Z,1.80
2023-05-06T22:47:41.079Z,2.77
2023-05-06T22:50:12.026Z,4.57
2023-05-06T22:52:40.456Z,1.80
2023-05-06T22:55:10.596Z,2.13
2023-05-06T22:57:39.327Z,2.10
2023-05-06T23:00:12.644Z,3.63
2023-05-06T23:02:41.457Z,2.50
2023-05-06T23:05:11.602Z,3.20
2023-05-06T23:07:40.442Z,3.90
2023-05-06T23:10:09.882Z,2.70
2023-05-06T23:12:38.386Z,2.90
2023-05-06T23:15:08.545Z,2.43
2023-05-06T23:17:37.223Z,5.13
2023-05-06T23:20:06.157Z,5.40
2023-05-06T23:22:36.001Z,2.80
2023-05-06T23:25:05.922Z,5.87
2023-05-06T23:27:34.345Z,5.63
2023-05-06T23:30:03.050Z,3.47
2023-05-06T23:32:31.512Z,3.47
2023-05-06T23:35:00.201Z,3.27
2023-05-06T23:37:28.692Z,6.43
2023-05-06T23:39:58.854Z,3.90
2023-05-06T23:42:27.655Z,3.77
2023-05-06T23:44:56.257Z,5.90
2023-05-06T23:47:25.510Z,6.17
2023-05-06T23:49:53.928Z,6.03
2023-05-06T23:52:22.606Z,5.03
2023-05-06T23:54:51.997Z,5.23
2023-05-06T23:57:21.977Z,6.90
2023-05-06T23:59:50.892Z,5.73
